CheckWX is a tool to help pilots better visualize weather data.  It is not intended as a substitute for an official pre-flight weather briefing.

17:09:45 UTC

GOGS METAR
Cap Skirring Airport
Cap Skirring, Senegal
Current

1 hour ago

GOGS 211600Z 22006KT 9999 SCT015 32/25 Q1012
Observed
Jul-21 @ 16:00 UTC
Wind
  • 220° at 6 KTS
Visibility
10,000+ meters
Flight Rules
VFR
Cloud Levels
  • Scattered at 1,500' AGL
Temperature
32°C / 90°F
Dewpoint
25°C / 77°F
Heat Index
40°C / 104°F
Humidity
67%
Altimeter
29.88" Hg
Pressure
1011.92 hPa
Previous

2 hours ago

GOGS 211500Z VRB06KT 9999 SCT015 32/25 Q1012
Observed
Jul-21 @ 15:00 UTC
Wind
  • Variable at 6 KTS
Visibility
10,000+ meters
Flight Rules
VFR
Cloud Levels
  • Scattered at 1,500' AGL
Temperature
32°C / 90°F
Dewpoint
25°C / 77°F
Heat Index
40°C / 104°F
Humidity
67%
Altimeter
29.88" Hg
Pressure
1011.92 hPa
Previous

5 hours ago

GOGS 211200Z VRB06KT 9999 SCT015 31/25 Q1014
Observed
Jul-21 @ 12:00 UTC
Wind
  • Variable at 6 KTS
Visibility
10,000+ meters
Flight Rules
VFR
Cloud Levels
  • Scattered at 1,500' AGL
Temperature
31°C / 88°F
Dewpoint
25°C / 77°F
Heat Index
38°C / 100°F
Humidity
70%
Altimeter
29.94" Hg
Pressure
1013.92 hPa